createdAt,value
2019-03-23T00:01:17.149Z,100.00
2019-03-23T00:03:45.920Z,100.00
2019-03-23T00:06:14.242Z,100.00
2019-03-23T00:08:42.547Z,100.00
2019-03-23T00:11:10.869Z,100.00
2019-03-23T00:13:39.611Z,100.00
2019-03-23T00:16:07.933Z,100.00
2019-03-23T00:18:36.260Z,100.00
2019-03-23T00:21:04.894Z,100.00
2019-03-23T00:23:33.229Z,100.00
2019-03-23T00:26:01.531Z,100.00
2019-03-23T00:28:29.915Z,100.00
2019-03-23T00:30:58.584Z,100.00
2019-03-23T00:33:27.170Z,100.00
2019-03-23T00:35:55.493Z,100.00
2019-03-23T00:38:23.868Z,100.00
2019-03-23T00:40:52.202Z,100.00
2019-03-23T00:43:20.519Z,100.00
2019-03-23T00:45:48.846Z,100.00
2019-03-23T00:48:17.230Z,100.00
2019-03-23T00:50:45.529Z,100.00
2019-03-23T00:53:13.858Z,100.00
2019-03-23T00:55:42.160Z,100.00
2019-03-23T00:58:10.570Z,100.00
2019-03-23T01:00:38.940Z,100.00
2019-03-23T01:03:07.651Z,100.00
2019-03-23T01:05:35.957Z,100.00
2019-03-23T01:08:04.287Z,100.00
2019-03-23T01:10:32.600Z,100.00
2019-03-23T01:13:00.963Z,100.00
2019-03-23T01:15:29.597Z,100.00
2019-03-23T01:17:57.903Z,100.00
2019-03-23T01:20:26.223Z,100.00
2019-03-23T01:22:54.542Z,100.00
2019-03-23T01:25:22.867Z,100.00
2019-03-23T01:27:51.174Z,100.00
2019-03-23T01:30:20.163Z,100.00
2019-03-23T01:32:48.469Z,100.00
2019-03-23T01:35:16.776Z,100.00
2019-03-23T01:37:45.171Z,100.00
2019-03-23T01:40:13.555Z,100.00
2019-03-23T01:42:41.902Z,100.00
2019-03-23T01:45:12.225Z,100.00
2019-03-23T01:47:40.650Z,100.00
2019-03-23T01:50:10.470Z,100.00
2019-03-23T01:52:38.846Z,100.00
2019-03-23T01:55:08.720Z,100.00
2019-03-23T01:57:37.171Z,100.00
2019-03-23T02:00:10.487Z,100.00
2019-03-23T02:02:38.791Z,100.00
2019-03-23T02:05:08.889Z,100.00
2019-03-23T02:07:37.202Z,100.00
2019-03-23T02:10:07.986Z,100.00
2019-03-23T02:12:36.362Z,100.00
2019-03-23T02:15:06.870Z,100.00
2019-03-23T02:17:35.194Z,100.00
2019-03-23T02:20:05.404Z,100.00
2019-03-23T02:22:33.796Z,100.00
2019-03-23T02:25:02.475Z,100.00
2019-03-23T02:27:30.798Z,100.00
2019-03-23T02:29:59.098Z,100.00
2019-03-23T02:32:27.731Z,100.00
2019-03-23T02:34:56.134Z,100.00
2019-03-23T02:37:27.961Z,100.00
2019-03-23T02:39:54.495Z,100.00
2019-03-23T02:42:22.830Z,100.00
2019-03-23T02:44:51.478Z,100.00
2019-03-23T02:47:19.819Z,100.00
2019-03-23T02:49:48.129Z,100.00
2019-03-23T02:52:16.538Z,100.00
2019-03-23T02:54:44.874Z,100.00
2019-03-23T02:57:13.491Z,100.00
2019-03-23T02:59:42.040Z,100.00
2019-03-23T03:02:10.369Z,100.00
2019-03-23T03:04:38.707Z,100.00
2019-03-23T03:07:07.114Z,100.00
2019-03-23T03:09:35.419Z,100.00
2019-03-23T03:12:03.904Z,100.00
2019-03-23T03:14:32.204Z,100.00
2019-03-23T03:17:00.539Z,100.00
2019-03-23T03:19:28.840Z,100.00
2019-03-23T03:21:57.257Z,100.00
2019-03-23T03:24:25.803Z,100.00
2019-03-23T03:26:54.383Z,100.00
2019-03-23T03:29:22.857Z,100.00
2019-03-23T03:31:51.184Z,100.00
2019-03-23T03:34:19.517Z,100.00
2019-03-23T03:36:48.084Z,100.00
2019-03-23T03:39:16.380Z,100.00
2019-03-23T03:41:44.910Z,100.00
2019-03-23T03:44:13.210Z,100.00
2019-03-23T03:46:41.542Z,100.00
2019-03-23T03:49:12.557Z,100.00
2019-03-23T03:51:39.905Z,100.00
2019-03-23T03:54:08.220Z,100.00
2019-03-23T03:56:36.549Z,100.00
2019-03-23T03:59:04.853Z,100.00
2019-03-23T04:01:33.190Z,100.00
2019-03-23T04:04:01.494Z,100.00
2019-03-23T04:06:29.802Z,100.00
2019-03-23T04:08:58.129Z,100.00
2019-03-23T04:11:26.436Z,100.00
2019-03-23T04:13:54.767Z,100.00
2019-03-23T04:16:23.079Z,100.00
2019-03-23T04:18:52.307Z,100.00
2019-03-23T04:21:20.608Z,100.00
2019-03-23T04:23:48.934Z,100.00
2019-03-23T04:26:17.247Z,100.00
2019-03-23T04:28:45.688Z,100.00
2019-03-23T04:31:13.997Z,100.00
2019-03-23T04:33:42.633Z,100.00
2019-03-23T04:36:11.016Z,100.00
2019-03-23T04:38:39.362Z,100.00
2019-03-23T04:41:07.764Z,100.00
2019-03-23T04:43:36.061Z,100.00
2019-03-23T04:46:04.453Z,100.00
2019-03-23T04:48:32.761Z,100.00
2019-03-23T04:51:01.072Z,100.00
2019-03-23T04:53:29.396Z,100.00
2019-03-23T04:55:57.777Z,100.00
2019-03-23T04:58:26.106Z,100.00
2019-03-23T05:00:54.497Z,100.00
2019-03-23T05:03:22.824Z,100.00
2019-03-23T05:05:51.399Z,100.00
2019-03-23T05:08:19.709Z,100.00
2019-03-23T05:10:48.038Z,100.00
2019-03-23T05:13:16.637Z,100.00
2019-03-23T05:15:44.962Z,100.00
2019-03-23T05:18:13.270Z,100.00
2019-03-23T05:20:41.600Z,100.00
2019-03-23T05:23:10.946Z,100.00
2019-03-23T05:25:39.269Z,100.00
2019-03-23T05:28:07.976Z,100.00
2019-03-23T05:30:36.283Z,100.00
2019-03-23T05:33:04.610Z,100.00
2019-03-23T05:35:32.917Z,100.00
2019-03-23T05:38:01.635Z,100.00
2019-03-23T05:40:29.943Z,100.00
2019-03-23T05:42:58.341Z,100.00
2019-03-23T05:45:27.029Z,100.00
2019-03-23T05:47:55.353Z,100.00
2019-03-23T05:50:23.668Z,100.00
2019-03-23T05:52:52.275Z,100.00
2019-03-23T05:55:20.608Z,100.00
2019-03-23T05:57:48.912Z,100.00
2019-03-23T06:00:18.580Z,100.00
2019-03-23T06:02:46.958Z,100.00
2019-03-23T06:05:15.285Z,100.00
2019-03-23T06:07:43.617Z,100.00
2019-03-23T06:10:12.258Z,100.00
2019-03-23T06:12:40.574Z,100.00
2019-03-23T06:15:09.319Z,100.00
2019-03-23T06:17:38.032Z,100.00
2019-03-23T06:20:08.312Z,100.00
2019-03-23T06:22:36.635Z,100.00
2019-03-23T06:25:07.024Z,100.00
2019-03-23T06:27:35.410Z,100.00
2019-03-23T06:30:04.382Z,100.00
2019-03-23T06:32:32.708Z,100.00
2019-03-23T06:35:01.123Z,100.00
2019-03-23T06:37:29.453Z,100.00
2019-03-23T06:39:57.751Z,100.00
2019-03-23T06:42:26.082Z,100.00
2019-03-23T06:44:54.525Z,100.00
2019-03-23T06:47:22.845Z,100.00
2019-03-23T06:49:51.148Z,100.00
2019-03-23T06:52:19.960Z,100.00
2019-03-23T06:54:48.359Z,100.00
2019-03-23T06:57:16.669Z,100.00
2019-03-23T06:59:44.985Z,100.00
2019-03-23T07:02:13.618Z,100.00
2019-03-23T07:04:42.086Z,100.00
2019-03-23T07:07:10.939Z,100.00
2019-03-23T07:09:39.261Z,100.00
2019-03-23T07:12:07.568Z,100.00
2019-03-23T07:14:35.885Z,100.00
2019-03-23T07:17:04.325Z,100.00
2019-03-23T07:19:32.808Z,100.00
2019-03-23T07:22:01.121Z,100.00
2019-03-23T07:24:29.450Z,100.00
2019-03-23T07:26:57.779Z,100.00
2019-03-23T07:29:26.091Z,100.00
2019-03-23T07:32:05.245Z,100.00
2019-03-23T07:34:24.447Z,100.00
2019-03-23T07:36:52.773Z,100.00
2019-03-23T07:39:27.309Z,100.00
2019-03-23T07:41:51.111Z,100.00
2019-03-23T07:44:19.527Z,100.00
2019-03-23T07:46:47.834Z,100.00
2019-03-23T07:49:16.453Z,100.00
2019-03-23T07:51:44.772Z,100.00
2019-03-23T07:54:14.350Z,100.00
2019-03-23T07:56:42.652Z,100.00
2019-03-23T07:59:10.956Z,100.00
2019-03-23T08:01:39.290Z,100.00
2019-03-23T08:04:07.658Z,100.00
2019-03-23T08:06:35.984Z,100.00
2019-03-23T08:09:05.424Z,100.00
2019-03-23T08:11:33.743Z,100.00
2019-03-23T08:14:02.040Z,100.00
2019-03-23T08:16:30.364Z,100.00
2019-03-23T08:18:58.669Z,100.00
2019-03-23T08:21:26.996Z,100.00
2019-03-23T08:23:55.643Z,100.00
2019-03-23T08:26:24.016Z,100.00
2019-03-23T08:28:52.629Z,100.00
2019-03-23T08:31:20.964Z,100.00
2019-03-23T08:33:49.394Z,100.00
2019-03-23T08:36:17.854Z,100.00
2019-03-23T08:38:46.203Z,100.00
2019-03-23T08:41:14.709Z,100.00
2019-03-23T08:43:43.021Z,100.00
2019-03-23T08:46:11.351Z,100.00
2019-03-23T08:48:40.076Z,100.00
2019-03-23T08:51:08.712Z,100.00
2019-03-23T08:53:37.026Z,100.00
2019-03-23T08:56:05.726Z,100.00
2019-03-23T08:58:33.242Z,100.00
2019-03-23T09:01:01.709Z,100.00
2019-03-23T09:03:30.015Z,100.00
2019-03-23T09:05:58.345Z,100.00
2019-03-23T09:08:26.746Z,100.00
2019-03-23T09:10:55.041Z,100.00
2019-03-23T09:13:23.445Z,100.00
2019-03-23T09:15:51.868Z,100.00
2019-03-23T09:18:20.210Z,100.00
2019-03-23T09:20:48.519Z,100.00
2019-03-23T09:23:17.217Z,100.00
2019-03-23T09:25:45.878Z,100.00
2019-03-23T09:28:14.440Z,100.00
2019-03-23T09:30:42.748Z,100.00
2019-03-23T09:33:11.059Z,100.00
2019-03-23T09:35:39.732Z,100.00
2019-03-23T09:38:08.420Z,100.00
2019-03-23T09:40:36.750Z,100.00
2019-03-23T09:43:05.202Z,100.00
2019-03-23T09:45:33.580Z,100.00
2019-03-23T09:48:01.837Z,100.00
2019-03-23T09:50:30.434Z,99.55
2019-03-23T09:52:58.834Z,99.18
2019-03-23T09:55:28.652Z,97.11
2019-03-23T09:57:57.250Z,93.75
2019-03-23T10:00:25.553Z,94.32
2019-03-23T10:02:53.987Z,92.86
2019-03-23T10:05:22.304Z,93.06
2019-03-23T10:07:50.944Z,89.16
2019-03-23T10:10:22.018Z,87.47
2019-03-23T10:12:49.277Z,88.48
2019-03-23T10:15:17.676Z,86.33
2019-03-23T10:17:45.993Z,84.86
2019-03-23T10:20:14.391Z,83.57
2019-03-23T10:22:42.880Z,79.73
2019-03-23T10:25:11.367Z,79.26
2019-03-23T10:27:39.662Z,75.00
2019-03-23T10:30:10.007Z,74.46
2019-03-23T10:32:38.394Z,73.01
2019-03-23T10:35:08.606Z,73.56
2019-03-23T10:37:36.934Z,76.83
2019-03-23T10:40:07.645Z,71.06
2019-03-23T10:42:36.165Z,67.66
2019-03-23T10:45:09.289Z,65.74
2019-03-23T10:47:38.008Z,68.13
2019-03-23T10:50:07.039Z,67.89
2019-03-23T10:52:35.363Z,63.08
2019-03-23T10:55:08.231Z,64.77
2019-03-23T10:57:37.508Z,63.90
2019-03-23T11:00:13.274Z,61.52
2019-03-23T11:02:41.656Z,60.90
2019-03-23T11:05:10.616Z,61.28
2019-03-23T11:07:39.600Z,58.95
2019-03-23T11:10:13.206Z,58.04
2019-03-23T11:12:41.609Z,57.92
2019-03-23T11:15:10.798Z,58.88
2019-03-23T11:17:39.928Z,57.43
2019-03-23T11:20:12.931Z,60.63
2019-03-23T11:22:41.258Z,57.71
2019-03-23T11:25:10.013Z,58.00
2019-03-23T11:27:38.665Z,57.49
2019-03-23T11:30:09.819Z,56.12
2019-03-23T11:32:38.150Z,54.64
2019-03-23T11:35:08.090Z,52.99
2019-03-23T11:37:37.210Z,55.04
2019-03-23T11:40:08.327Z,51.24
2019-03-23T11:42:36.628Z,47.97
2019-03-23T11:45:06.876Z,48.34
2019-03-23T11:47:35.188Z,47.35
2019-03-23T11:50:04.246Z,45.71
2019-03-23T11:52:32.545Z,44.48
2019-03-23T11:55:00.872Z,41.18
2019-03-23T11:57:29.169Z,43.00
2019-03-23T11:59:57.692Z,40.69
2019-03-23T12:02:26.385Z,41.73
2019-03-23T12:04:55.264Z,39.58
2019-03-23T12:07:24.169Z,39.01
2019-03-23T12:09:52.850Z,39.52
2019-03-23T12:12:21.248Z,38.93
2019-03-23T12:14:49.630Z,38.88
2019-03-23T12:17:18.360Z,39.28
2019-03-23T12:19:47.715Z,38.33
2019-03-23T12:22:16.018Z,36.60
2019-03-23T12:24:44.415Z,38.96
2019-03-23T12:27:12.712Z,38.34
2019-03-23T12:29:41.348Z,39.26
2019-03-23T12:32:09.724Z,36.91
2019-03-23T12:34:38.073Z,37.07
2019-03-23T12:37:06.379Z,37.94
2019-03-23T12:39:34.685Z,36.27
2019-03-23T12:42:03.656Z,37.37
2019-03-23T12:44:32.024Z,38.25
2019-03-23T12:47:00.415Z,36.49
2019-03-23T12:49:28.806Z,38.01
2019-03-23T12:51:57.496Z,36.56
2019-03-23T12:54:25.796Z,35.51
2019-03-23T12:56:54.102Z,34.73
2019-03-23T12:59:22.735Z,35.53
2019-03-23T13:01:51.043Z,34.82
2019-03-23T13:04:19.438Z,34.63
2019-03-23T13:06:47.747Z,36.50
2019-03-23T13:09:16.068Z,34.68
2019-03-23T13:11:44.381Z,35.49
2019-03-23T13:14:12.819Z,34.33
2019-03-23T13:16:41.145Z,34.55
2019-03-23T13:19:09.790Z,35.24
2019-03-23T13:21:38.128Z,35.46
2019-03-23T13:24:06.449Z,35.42
2019-03-23T13:26:34.838Z,34.43
2019-03-23T13:29:03.144Z,35.45
2019-03-23T13:31:31.453Z,34.09
2019-03-23T13:34:00.089Z,33.65
2019-03-23T13:36:28.392Z,34.76
2019-03-23T13:38:56.720Z,33.48
2019-03-23T13:41:25.026Z,34.18
2019-03-23T13:43:53.351Z,32.33
2019-03-23T13:46:21.659Z,32.83
2019-03-23T13:48:49.978Z,33.86
2019-03-23T13:51:18.294Z,32.96
2019-03-23T13:53:46.609Z,32.02
2019-03-23T13:56:15.310Z,32.59
2019-03-23T13:58:43.608Z,32.80
2019-03-23T14:01:12.281Z,33.38
2019-03-23T14:03:40.594Z,33.44
2019-03-23T14:06:09.017Z,34.49
2019-03-23T14:08:37.649Z,32.96
2019-03-23T14:11:06.417Z,32.61
2019-03-23T14:13:34.745Z,32.41
2019-03-23T14:16:03.182Z,33.02
2019-03-23T14:18:31.483Z,32.76
2019-03-23T14:20:59.787Z,32.71
2019-03-23T14:23:28.113Z,32.83
2019-03-23T14:25:56.412Z,32.31
2019-03-23T14:28:25.103Z,31.28
2019-03-23T14:30:53.569Z,33.41
2019-03-23T14:33:21.898Z,30.69
2019-03-23T14:35:50.543Z,30.83
2019-03-23T14:38:19.020Z,30.99
2019-03-23T14:40:47.396Z,33.52
2019-03-23T14:43:15.720Z,31.98
2019-03-23T14:45:44.020Z,32.32
2019-03-23T14:48:12.551Z,31.11
2019-03-23T14:50:42.731Z,31.73
2019-03-23T14:53:11.326Z,31.19
2019-03-23T14:55:39.653Z,31.73
2019-03-23T14:58:07.958Z,30.58
2019-03-23T15:00:36.541Z,31.61
2019-03-23T15:03:05.285Z,31.77
2019-03-23T15:05:33.601Z,30.80
2019-03-23T15:08:01.930Z,30.58
2019-03-23T15:10:30.307Z,29.75
2019-03-23T15:12:58.632Z,30.50
2019-03-23T15:15:27.079Z,29.62
2019-03-23T15:17:55.607Z,30.22
2019-03-23T15:20:23.944Z,29.93
2019-03-23T15:22:52.257Z,30.70
2019-03-23T15:25:20.632Z,29.44
2019-03-23T15:27:48.950Z,29.65
2019-03-23T15:30:17.277Z,30.08
2019-03-23T15:32:45.593Z,30.45
2019-03-23T15:35:14.278Z,29.34
2019-03-23T15:37:42.588Z,29.32
2019-03-23T15:40:11.452Z,29.77
2019-03-23T15:42:39.756Z,29.82
2019-03-23T15:45:10.023Z,30.36
2019-03-23T15:47:38.434Z,31.17
2019-03-23T15:50:07.794Z,32.66
2019-03-23T15:52:36.173Z,32.42
2019-03-23T15:55:05.941Z,31.48
2019-03-23T15:57:34.691Z,31.75
2019-03-23T16:00:04.672Z,31.45
2019-03-23T16:02:32.989Z,31.89
2019-03-23T16:05:01.297Z,31.48
2019-03-23T16:07:29.917Z,32.41
2019-03-23T16:09:58.328Z,33.77
2019-03-23T16:12:34.450Z,33.64
2019-03-23T16:14:56.754Z,34.49
2019-03-23T16:17:25.065Z,34.71
2019-03-23T16:19:53.390Z,34.49
2019-03-23T16:22:21.696Z,34.92
2019-03-23T16:24:50.023Z,34.73
2019-03-23T16:27:18.334Z,35.66
2019-03-23T16:29:46.707Z,35.65
2019-03-23T16:32:15.348Z,35.80
2019-03-23T16:34:43.655Z,35.45
2019-03-23T16:37:12.112Z,36.82
2019-03-23T16:39:40.413Z,37.00
2019-03-23T16:42:08.726Z,37.37
2019-03-23T16:44:37.047Z,37.24
2019-03-23T16:47:05.414Z,37.67
2019-03-23T16:49:33.752Z,38.29
2019-03-23T16:52:02.056Z,38.80
2019-03-23T16:54:30.397Z,39.96
2019-03-23T16:56:58.686Z,40.04
2019-03-23T16:59:26.992Z,40.70
2019-03-23T17:01:55.458Z,41.00
2019-03-23T17:04:23.760Z,41.38
2019-03-23T17:06:52.113Z,42.07
2019-03-23T17:09:20.431Z,43.39
2019-03-23T17:11:48.756Z,44.17
2019-03-23T17:14:17.062Z,44.86
2019-03-23T17:16:45.466Z,45.65
2019-03-23T17:19:13.838Z,46.27
2019-03-23T17:21:42.672Z,47.41
2019-03-23T17:24:11.002Z,48.48
2019-03-23T17:26:39.318Z,49.59
2019-03-23T17:29:07.808Z,50.11
2019-03-23T17:31:36.311Z,51.25
2019-03-23T17:34:04.636Z,51.81
2019-03-23T17:36:32.948Z,53.43
2019-03-23T17:39:01.268Z,53.43
2019-03-23T17:41:29.577Z,53.16
2019-03-23T17:43:57.881Z,53.58
2019-03-23T17:46:27.779Z,54.05
2019-03-23T17:48:56.305Z,54.77
2019-03-23T17:51:25.426Z,55.59
2019-03-23T17:53:58.583Z,56.40
2019-03-23T17:56:23.918Z,58.00
2019-03-23T17:58:52.391Z,59.08
2019-03-23T18:01:20.703Z,59.49
2019-03-23T18:03:49.007Z,60.57
2019-03-23T18:06:17.345Z,60.90
2019-03-23T18:08:45.649Z,62.46
2019-03-23T18:11:13.974Z,62.73
2019-03-23T18:13:42.683Z,63.80
2019-03-23T18:16:11.364Z,64.64
2019-03-23T18:18:39.669Z,65.18
2019-03-23T18:21:07.982Z,65.78
2019-03-23T18:23:36.306Z,66.11
2019-03-23T18:26:05.097Z,67.34
2019-03-23T18:28:33.500Z,67.83
2019-03-23T18:31:03.090Z,69.72
2019-03-23T18:33:31.487Z,67.41
2019-03-23T18:35:59.803Z,67.24
2019-03-23T18:38:28.122Z,69.54
2019-03-23T18:40:56.828Z,71.85
2019-03-23T18:43:27.623Z,74.96
2019-03-23T18:45:55.181Z,74.92
2019-03-23T18:48:23.503Z,74.22
2019-03-23T18:50:51.810Z,74.67
2019-03-23T18:53:20.129Z,75.84
2019-03-23T18:55:48.437Z,76.80
2019-03-23T18:58:16.767Z,77.32
2019-03-23T19:00:45.303Z,78.03
2019-03-23T19:03:13.771Z,79.10
2019-03-23T19:05:42.114Z,79.74
2019-03-23T19:08:11.869Z,78.60
2019-03-23T19:10:40.990Z,80.22
2019-03-23T19:13:09.361Z,85.17
2019-03-23T19:15:37.760Z,81.73
2019-03-23T19:18:07.052Z,82.90
2019-03-23T19:20:35.443Z,86.43
2019-03-23T19:23:04.185Z,89.48
2019-03-23T19:25:32.568Z,91.45
2019-03-23T19:28:00.894Z,92.92
2019-03-23T19:30:29.266Z,93.00
2019-03-23T19:32:57.658Z,91.78
2019-03-23T19:35:26.039Z,90.93
2019-03-23T19:37:54.722Z,91.84
2019-03-23T19:40:23.410Z,92.32
2019-03-23T19:42:51.743Z,95.98
2019-03-23T19:45:20.052Z,93.91
2019-03-23T19:47:48.359Z,94.37
2019-03-23T19:50:16.761Z,96.18
2019-03-23T19:52:45.065Z,93.80
2019-03-23T19:55:13.528Z,95.42
2019-03-23T19:57:41.838Z,96.20
2019-03-23T20:00:12.393Z,98.50
2019-03-23T20:02:41.511Z,100.00
2019-03-23T20:05:10.301Z,100.00
2019-03-23T20:07:38.619Z,100.00
2019-03-23T20:10:08.987Z,100.00
2019-03-23T20:12:37.815Z,100.00
2019-03-23T20:15:07.729Z,100.00
2019-03-23T20:17:36.126Z,100.00
2019-03-23T20:20:07.258Z,100.00
2019-03-23T20:22:35.654Z,100.00
2019-03-23T20:25:05.413Z,100.00
2019-03-23T20:27:33.786Z,100.00
2019-03-23T20:30:02.059Z,100.00
2019-03-23T20:32:30.379Z,100.00
2019-03-23T20:34:59.079Z,100.00
2019-03-23T20:37:27.467Z,100.00
2019-03-23T20:39:55.790Z,100.00
2019-03-23T20:42:24.100Z,100.00
2019-03-23T20:44:52.427Z,100.00
2019-03-23T20:47:21.012Z,100.00
2019-03-23T20:49:49.405Z,100.00
2019-03-23T20:52:18.161Z,100.00
2019-03-23T20:54:47.519Z,100.00
2019-03-23T20:57:23.394Z,100.00
2019-03-23T20:59:45.863Z,100.00
2019-03-23T21:02:14.194Z,100.00
2019-03-23T21:04:42.511Z,100.00
2019-03-23T21:07:10.898Z,100.00
2019-03-23T21:09:39.208Z,100.00
2019-03-23T21:12:07.535Z,100.00
2019-03-23T21:14:35.848Z,100.00
2019-03-23T21:17:04.246Z,100.00
2019-03-23T21:19:32.558Z,100.00
2019-03-23T21:22:00.964Z,100.00
2019-03-23T21:24:29.279Z,100.00
2019-03-23T21:26:57.960Z,100.00
2019-03-23T21:29:26.414Z,100.00
2019-03-23T21:31:54.719Z,100.00
2019-03-23T21:34:23.054Z,100.00
2019-03-23T21:36:51.369Z,100.00
2019-03-23T21:39:19.766Z,100.00
2019-03-23T21:41:48.079Z,100.00
2019-03-23T21:44:16.399Z,100.00
2019-03-23T21:46:44.728Z,100.00
2019-03-23T21:49:13.504Z,100.00
2019-03-23T21:51:41.836Z,100.00
2019-03-23T21:54:10.145Z,100.00
2019-03-23T21:56:38.848Z,100.00
2019-03-23T21:59:07.160Z,100.00
2019-03-23T22:01:35.494Z,100.00
2019-03-23T22:04:03.798Z,100.00
2019-03-23T22:06:32.124Z,100.00
2019-03-23T22:09:00.752Z,100.00
2019-03-23T22:11:29.075Z,100.00
2019-03-23T22:13:57.400Z,100.00
2019-03-23T22:16:25.997Z,100.00
2019-03-23T22:18:54.349Z,100.00
2019-03-23T22:21:22.651Z,100.00
2019-03-23T22:23:51.357Z,100.00
2019-03-23T22:26:19.713Z,100.00
2019-03-23T22:28:48.052Z,100.00
2019-03-23T22:31:16.366Z,100.00
2019-03-23T22:33:44.672Z,100.00
2019-03-23T22:36:12.993Z,100.00
2019-03-23T22:38:41.301Z,100.00
2019-03-23T22:41:09.704Z,100.00
2019-03-23T22:43:39.016Z,100.00
2019-03-23T22:46:07.331Z,100.00
2019-03-23T22:48:35.984Z,100.00
2019-03-23T22:51:04.360Z,100.00
2019-03-23T22:53:32.681Z,100.00
2019-03-23T22:56:00.986Z,100.00
2019-03-23T22:58:29.307Z,100.00
2019-03-23T23:00:57.683Z,100.00
2019-03-23T23:03:25.986Z,100.00
2019-03-23T23:05:54.387Z,100.00
2019-03-23T23:08:22.695Z,100.00
2019-03-23T23:10:51.025Z,100.00
2019-03-23T23:13:19.697Z,100.00
2019-03-23T23:15:48.014Z,100.00
2019-03-23T23:18:16.391Z,100.00
2019-03-23T23:20:44.713Z,100.00
2019-03-23T23:23:13.019Z,100.00
2019-03-23T23:25:41.424Z,100.00
2019-03-23T23:28:09.722Z,100.00
2019-03-23T23:30:38.033Z,100.00
2019-03-23T23:33:06.357Z,100.00
2019-03-23T23:35:34.734Z,100.00
2019-03-23T23:38:03.131Z,100.00
2019-03-23T23:40:31.439Z,100.00
2019-03-23T23:42:59.760Z,100.00
2019-03-23T23:45:28.084Z,100.00
2019-03-23T23:47:56.390Z,100.00
2019-03-23T23:50:24.716Z,100.00
2019-03-23T23:52:53.026Z,100.00
2019-03-23T23:55:21.336Z,100.00
2019-03-23T23:57:49.655Z,100.00
